createdAt,value
2023-03-16T00:00:30.057Z,50.60
2023-03-16T00:01:29.810Z,55.36
2023-03-16T00:02:29.802Z,50.62
2023-03-16T00:03:30.491Z,44.70
2023-03-16T00:04:29.788Z,43.87
2023-03-16T00:05:29.792Z,44.08
2023-03-16T00:06:29.785Z,47.84
2023-03-16T00:07:29.756Z,45.90
2023-03-16T00:08:29.771Z,43.86
2023-03-16T00:09:29.739Z,46.08
2023-03-16T00:10:29.929Z,50.24
2023-03-16T00:11:29.752Z,56.30
2023-03-16T00:12:29.730Z,44.18
2023-03-16T00:13:29.715Z,56.84
2023-03-16T00:14:29.751Z,53.11
2023-03-16T00:15:29.735Z,52.51
2023-03-16T00:16:29.890Z,43.29
2023-03-16T00:17:29.676Z,43.31
2023-03-16T00:18:29.671Z,43.96
2023-03-16T00:19:29.722Z,52.37
2023-03-16T00:20:29.680Z,47.47
2023-03-16T00:21:29.730Z,44.53
2023-03-16T00:22:29.647Z,44.66
2023-03-16T00:23:29.639Z,55.73
2023-03-16T00:24:29.646Z,44.20
2023-03-16T00:25:29.634Z,47.01
2023-03-16T00:26:29.655Z,43.96
2023-03-16T00:27:29.624Z,48.51
2023-03-16T00:28:29.598Z,43.87
2023-03-16T00:29:29.591Z,43.51
2023-03-16T00:30:29.717Z,43.78
2023-03-16T00:31:29.621Z,44.36
2023-03-16T00:32:29.641Z,43.63
2023-03-16T00:33:29.604Z,43.71
2023-03-16T00:34:29.564Z,43.95
2023-03-16T00:35:29.551Z,50.62
2023-03-16T00:36:29.644Z,50.87
2023-03-16T00:37:29.548Z,43.30
2023-03-16T00:38:29.564Z,43.55
2023-03-16T00:39:29.604Z,49.63
2023-03-16T00:40:30.508Z,48.26
2023-03-16T00:41:29.500Z,43.38
2023-03-16T00:42:29.519Z,46.15
2023-03-16T00:43:29.493Z,46.06
2023-03-16T00:44:29.506Z,49.32
2023-03-16T00:45:29.530Z,49.50
2023-03-16T00:46:29.482Z,43.24
2023-03-16T00:47:29.492Z,43.25
2023-03-16T00:48:29.537Z,52.69
2023-03-16T00:49:29.500Z,44.15
2023-03-16T00:50:29.811Z,54.44
2023-03-16T00:51:29.421Z,47.93
2023-03-16T00:52:29.462Z,49.45
2023-03-16T00:53:29.573Z,45.97
2023-03-16T00:54:29.404Z,44.73
2023-03-16T00:55:29.427Z,44.56
2023-03-16T00:56:29.408Z,50.01
2023-03-16T00:57:29.396Z,45.08
2023-03-16T00:58:29.407Z,58.52
2023-03-16T00:59:29.414Z,44.35
2023-03-16T01:00:29.675Z,44.03
2023-03-16T01:01:29.413Z,46.37
2023-03-16T01:02:29.345Z,50.03
2023-03-16T01:03:29.518Z,50.28
2023-03-16T01:04:29.331Z,43.14
2023-03-16T01:05:29.363Z,50.48
2023-03-16T01:06:29.357Z,55.80
2023-03-16T01:07:29.312Z,50.22
2023-03-16T01:08:29.290Z,53.03
2023-03-16T01:09:29.291Z,49.42
2023-03-16T01:10:29.809Z,44.34
2023-03-16T01:11:30.291Z,46.70
2023-03-16T01:12:29.260Z,44.79
2023-03-16T01:13:29.892Z,56.40
2023-03-16T01:14:29.283Z,58.99
2023-03-16T01:15:29.257Z,49.38
2023-03-16T01:16:29.283Z,54.06
2023-03-16T01:17:29.302Z,61.94
2023-03-16T01:18:29.249Z,71.66
2023-03-16T01:19:29.233Z,45.96
2023-03-16T01:20:29.629Z,58.16
2023-03-16T01:21:29.241Z,45.49
2023-03-16T01:22:29.187Z,53.59
2023-03-16T01:23:29.163Z,54.83
2023-03-16T01:24:30.232Z,45.84
2023-03-16T01:25:29.193Z,46.38
2023-03-16T01:26:29.163Z,49.05
2023-03-16T01:27:29.219Z,45.69
2023-03-16T01:28:29.197Z,54.19
2023-03-16T01:29:29.136Z,49.61
2023-03-16T01:30:29.594Z,43.03
2023-03-16T01:31:29.145Z,53.06
2023-03-16T01:32:29.258Z,43.23
2023-03-16T01:33:29.153Z,43.26
2023-03-16T01:34:29.182Z,43.19
2023-03-16T01:35:29.161Z,43.93
2023-03-16T01:36:29.836Z,50.44
2023-03-16T01:37:29.834Z,43.94
2023-03-16T01:38:29.096Z,50.11
2023-03-16T01:39:29.089Z,50.75
2023-03-16T01:40:30.165Z,53.27
2023-03-16T01:41:29.045Z,43.79
2023-03-16T01:42:29.077Z,48.80
2023-03-16T01:43:29.122Z,49.94
2023-03-16T01:44:29.039Z,49.49
2023-03-16T01:45:29.035Z,57.36
2023-03-16T01:46:29.092Z,49.70
2023-03-16T01:47:29.044Z,51.12
2023-03-16T01:48:29.061Z,50.08
2023-03-16T01:49:29.035Z,54.37
2023-03-16T01:50:29.507Z,49.10
2023-03-16T01:51:28.992Z,44.65
2023-03-16T01:52:29.864Z,46.79
2023-03-16T01:53:29.018Z,44.77
2023-03-16T01:54:28.992Z,50.42
2023-03-16T01:55:28.953Z,47.04
2023-03-16T01:56:28.964Z,47.14
2023-03-16T01:57:28.946Z,43.27
2023-03-16T01:58:28.993Z,46.10
2023-03-16T01:59:28.952Z,61.19
2023-03-16T02:00:29.235Z,46.71
2023-03-16T02:01:28.962Z,43.54
2023-03-16T02:02:28.909Z,50.62
2023-03-16T02:03:28.915Z,43.60
2023-03-16T02:04:28.949Z,43.36
2023-03-16T02:05:28.896Z,43.98
2023-03-16T02:06:29.842Z,49.79
2023-03-16T02:07:29.829Z,54.39
2023-03-16T02:08:29.854Z,46.81
2023-03-16T02:09:28.890Z,46.30
2023-03-16T02:10:29.317Z,47.44
2023-03-16T02:11:28.829Z,42.91
2023-03-16T02:12:28.862Z,42.85
2023-03-16T02:13:29.883Z,43.17
2023-03-16T02:14:28.824Z,47.73
2023-03-16T02:15:28.842Z,42.87
2023-03-16T02:17:01.292Z,43.69
2023-03-16T02:17:28.812Z,57.99
2023-03-16T02:18:28.787Z,59.79
2023-03-16T02:19:28.859Z,49.57
2023-03-16T02:20:29.140Z,43.45
2023-03-16T02:21:28.766Z,43.29
2023-03-16T02:22:28.749Z,50.49
2023-03-16T02:23:28.811Z,50.67
2023-03-16T02:24:28.771Z,44.62
2023-03-16T02:25:28.740Z,44.71
2023-03-16T02:26:29.405Z,44.64
2023-03-16T02:27:28.793Z,54.55
2023-03-16T02:28:28.743Z,48.56
2023-03-16T02:29:28.735Z,43.05
2023-03-16T02:30:29.054Z,43.05
2023-03-16T02:31:28.741Z,52.98
2023-03-16T02:32:28.720Z,42.87
2023-03-16T02:33:28.672Z,47.67
2023-03-16T02:34:28.666Z,56.68
2023-03-16T02:35:28.721Z,42.89
2023-03-16T02:36:28.635Z,43.03
2023-03-16T02:37:28.653Z,43.72
2023-03-16T02:38:28.644Z,57.82
2023-03-16T02:39:28.632Z,44.35
2023-03-16T02:40:29.001Z,54.44
2023-03-16T02:41:28.636Z,58.04
2023-03-16T02:42:28.613Z,44.04
2023-03-16T02:43:29.402Z,43.74
2023-03-16T02:44:28.604Z,43.55
2023-03-16T02:45:28.648Z,49.19
2023-03-16T02:46:28.715Z,43.52
2023-03-16T02:47:28.593Z,50.11
2023-03-16T02:48:28.565Z,43.08
2023-03-16T02:49:28.577Z,49.92
2023-03-16T02:50:28.978Z,44.98
2023-03-16T02:51:28.625Z,53.77
2023-03-16T02:52:28.544Z,49.24
2023-03-16T02:53:28.531Z,50.46
2023-03-16T02:54:28.537Z,49.82
2023-03-16T02:55:28.538Z,44.24
2023-03-16T02:56:28.562Z,43.44
2023-03-16T02:57:28.618Z,49.04
2023-03-16T02:58:28.507Z,50.98
2023-03-16T02:59:28.514Z,43.45
2023-03-16T03:00:28.733Z,48.84
2023-03-16T03:01:28.488Z,55.59
2023-03-16T03:02:28.498Z,48.61
2023-03-16T03:03:28.487Z,54.92
2023-03-16T03:04:28.469Z,54.25
2023-03-16T03:05:29.369Z,43.57
2023-03-16T03:06:28.425Z,43.41
2023-03-16T03:07:28.461Z,43.27
2023-03-16T03:08:28.440Z,43.30
2023-03-16T03:09:28.458Z,48.80
2023-03-16T03:10:28.716Z,43.15
2023-03-16T03:11:29.391Z,54.24
2023-03-16T03:12:28.408Z,43.14
2023-03-16T03:13:28.420Z,43.02
2023-03-16T03:14:28.395Z,43.25
2023-03-16T03:15:28.375Z,43.20
2023-03-16T03:16:28.445Z,51.91
2023-03-16T03:17:28.363Z,50.33
2023-03-16T03:18:28.357Z,47.70
2023-03-16T03:19:28.369Z,51.82
2023-03-16T03:20:28.533Z,43.17
2023-03-16T03:21:28.328Z,44.47
2023-03-16T03:22:28.427Z,44.50
2023-03-16T03:23:28.320Z,47.22
2023-03-16T03:24:28.304Z,50.72
2023-03-16T03:25:28.311Z,50.24
2023-03-16T03:26:28.335Z,43.38
2023-03-16T03:27:28.324Z,53.77
2023-03-16T03:28:28.283Z,49.20
2023-03-16T03:29:28.305Z,44.00
2023-03-16T03:30:28.601Z,43.55
2023-03-16T03:31:28.282Z,55.14
2023-03-16T03:32:28.305Z,55.30
2023-03-16T03:33:28.221Z,45.41
2023-03-16T03:34:28.323Z,50.87
2023-03-16T03:35:28.272Z,47.43
2023-03-16T03:36:28.212Z,52.39
2023-03-16T03:37:28.218Z,59.06
2023-03-16T03:38:28.224Z,43.32
2023-03-16T03:39:28.199Z,43.23
2023-03-16T03:40:28.415Z,49.25
2023-03-16T03:41:28.217Z,55.87
2023-03-16T03:42:28.199Z,43.46
2023-03-16T03:43:28.182Z,50.95
2023-03-16T03:44:28.179Z,45.17
2023-03-16T03:45:28.244Z,48.79
2023-03-16T03:46:28.381Z,51.86
2023-03-16T04:03:55.379Z,51.79
2023-03-16T04:04:55.422Z,53.17
2023-03-16T04:05:56.534Z,50.83
2023-03-16T04:06:56.558Z,63.30
2023-03-16T04:07:56.497Z,56.07
2023-03-16T04:08:56.512Z,49.56
2023-03-16T04:09:56.505Z,50.64
2023-03-16T04:10:56.525Z,51.93
2023-03-16T04:11:56.524Z,60.95
2023-03-16T04:12:56.473Z,53.51
2023-03-16T04:13:56.479Z,66.54
2023-03-16T04:14:56.462Z,63.20
2023-03-16T04:15:56.456Z,60.33
2023-03-16T04:16:56.555Z,50.34
2023-03-16T04:17:56.478Z,60.04
2023-03-16T04:18:56.424Z,63.06
2023-03-16T04:19:56.443Z,60.33
2023-03-16T04:20:56.380Z,56.18
2023-03-16T04:21:56.401Z,56.88
2023-03-16T04:22:56.413Z,57.13
2023-03-16T04:23:56.386Z,59.06
2023-03-16T04:24:56.410Z,59.77
2023-03-16T04:25:56.380Z,64.86
2023-03-16T04:26:56.374Z,71.90
2023-03-16T04:27:56.388Z,62.63
2023-03-16T04:28:56.345Z,53.63
2023-03-16T04:29:56.405Z,63.92
2023-03-16T04:30:56.357Z,62.97
2023-03-16T04:31:56.418Z,56.77
2023-03-16T04:32:57.449Z,62.84
2023-03-16T04:33:57.098Z,61.95
2023-03-16T04:34:56.363Z,66.38
2023-03-16T04:35:56.348Z,69.98
2023-03-16T04:36:56.292Z,65.02
2023-03-16T04:37:56.260Z,63.84
2023-03-16T04:38:56.298Z,56.49
2023-03-16T04:39:56.255Z,60.14
2023-03-16T04:40:56.251Z,66.48
2023-03-16T04:41:56.254Z,67.86
2023-03-16T04:42:57.087Z,63.92
2023-03-16T04:43:56.995Z,60.87
2023-03-16T04:44:56.225Z,63.55
2023-03-16T04:45:56.308Z,64.78
2023-03-16T04:46:56.246Z,62.85
2023-03-16T04:47:56.184Z,65.16
2023-03-16T04:48:56.210Z,67.09
2023-03-16T04:49:56.194Z,56.02
2023-03-16T04:50:56.163Z,63.18
2023-03-16T04:51:56.178Z,56.14
2023-03-16T04:52:56.178Z,59.20
2023-03-16T04:53:56.323Z,67.05
2023-03-16T04:54:56.163Z,67.61
2023-03-16T04:55:56.166Z,48.53
2023-03-16T04:56:56.184Z,57.54
2023-03-16T04:57:56.190Z,62.65
2023-03-16T04:58:56.104Z,65.68
2023-03-16T04:59:56.112Z,65.68
2023-03-16T05:00:56.099Z,58.12
2023-03-16T05:01:56.195Z,59.93
2023-03-16T05:02:56.162Z,53.63
2023-03-16T05:03:57.918Z,61.95
2023-03-16T05:04:57.084Z,66.86
2023-03-16T05:06:02.310Z,55.79
2023-03-16T05:06:56.072Z,69.29
2023-03-16T05:07:56.144Z,60.90
2023-03-16T05:08:56.086Z,62.59
2023-03-16T05:09:56.176Z,57.64
2023-03-16T05:10:56.391Z,62.81
2023-03-16T05:11:56.023Z,59.81
2023-03-16T05:12:56.040Z,58.90
2023-03-16T05:13:56.989Z,66.32
2023-03-16T05:14:55.992Z,61.33
2023-03-16T05:15:56.017Z,63.24
2023-03-16T05:16:56.004Z,66.83
2023-03-16T05:17:56.644Z,65.50
2023-03-16T05:18:55.976Z,71.39
2023-03-16T05:19:56.063Z,69.44
2023-03-16T05:20:55.934Z,65.33
2023-03-16T05:21:57.430Z,64.79
2023-03-16T05:22:55.945Z,66.59
2023-03-16T05:23:55.959Z,63.14
2023-03-16T05:24:56.214Z,63.14
2023-03-16T05:25:55.915Z,69.41
2023-03-16T05:26:55.914Z,65.90
2023-03-16T05:27:55.912Z,68.12
2023-03-16T05:28:55.894Z,66.67
2023-03-16T05:29:55.910Z,64.12
2023-03-16T05:30:55.923Z,69.28
2023-03-16T05:31:55.951Z,67.93
2023-03-16T05:32:56.012Z,71.45
2023-03-16T05:33:55.870Z,67.81
2023-03-16T05:34:55.873Z,64.84
2023-03-16T05:35:55.874Z,63.60
2023-03-16T05:36:55.834Z,71.63
2023-03-16T05:37:55.841Z,59.10
2023-03-16T05:38:55.873Z,70.29
2023-03-16T05:39:55.868Z,67.99
2023-03-16T05:40:55.806Z,67.62
2023-03-16T05:41:55.846Z,65.80
2023-03-16T05:42:55.810Z,73.69
2023-03-16T05:43:55.785Z,66.50
2023-03-16T05:44:55.816Z,64.95
2023-03-16T05:45:55.785Z,71.29
2023-03-16T05:46:55.845Z,68.60
2023-03-16T05:47:55.953Z,65.73
2023-03-16T05:48:55.807Z,68.82
2023-03-16T05:49:56.649Z,69.66
2023-03-16T05:50:55.762Z,61.18
2023-03-16T05:51:55.773Z,72.68
2023-03-16T05:52:55.743Z,69.36
2023-03-16T05:53:55.704Z,65.79
2023-03-16T05:54:55.721Z,63.28
2023-03-16T05:55:55.698Z,59.28
2023-03-16T05:56:55.743Z,67.33
2023-03-16T05:57:55.733Z,69.16
2023-03-16T05:58:55.700Z,71.21
2023-03-16T05:59:56.689Z,69.71
2023-03-16T06:00:55.655Z,63.85
2023-03-16T06:01:55.681Z,67.75
2023-03-16T06:02:55.757Z,66.70
2023-03-16T06:03:55.791Z,66.07
2023-03-16T06:04:56.598Z,65.68
2023-03-16T06:05:55.627Z,69.06
2023-03-16T06:06:55.630Z,65.89
2023-03-16T06:07:55.652Z,72.78
2023-03-16T06:08:55.623Z,69.73
2023-03-16T06:09:55.640Z,67.81
2023-03-16T06:10:55.608Z,67.07
2023-03-16T06:11:55.624Z,71.34
2023-03-16T06:12:55.617Z,71.75
2023-03-16T06:13:55.560Z,70.35
2023-03-16T06:14:55.555Z,71.65
2023-03-16T06:15:55.599Z,70.61
2023-03-16T06:16:55.563Z,71.13
2023-03-16T06:17:55.539Z,68.86
2023-03-16T06:18:56.593Z,72.07
2023-03-16T06:19:55.568Z,64.74
2023-03-16T06:20:55.506Z,70.73
2023-03-16T06:21:55.599Z,69.63
2023-03-16T06:22:56.434Z,68.68
2023-03-16T06:23:55.561Z,73.80
2023-03-16T06:24:55.540Z,74.00
2023-03-16T06:25:55.507Z,70.02
2023-03-16T06:26:55.518Z,70.59
2023-03-16T06:27:55.489Z,73.23
2023-03-16T06:28:55.556Z,73.86
2023-03-16T06:29:55.441Z,70.85
2023-03-16T06:30:55.512Z,72.20
2023-03-16T06:31:55.661Z,71.03
2023-03-16T06:32:55.524Z,73.40
2023-03-16T06:33:55.474Z,73.75
2023-03-16T06:34:55.432Z,72.87
2023-03-16T06:35:55.500Z,71.71
2023-03-16T06:36:55.435Z,74.44
2023-03-16T06:37:55.430Z,71.68
2023-03-16T06:38:55.451Z,71.84
2023-03-16T06:39:55.431Z,73.79
2023-03-16T06:40:55.447Z,68.36
2023-03-16T06:41:55.427Z,73.73
2023-03-16T06:42:55.387Z,69.96
2023-03-16T06:43:55.376Z,73.46
2023-03-16T06:44:55.359Z,71.92
2023-03-16T06:45:56.429Z,69.18
2023-03-16T06:46:55.354Z,72.86
2023-03-16T06:47:56.132Z,74.06
2023-03-16T06:48:55.341Z,71.20
2023-03-16T06:49:55.360Z,74.02
2023-03-16T06:50:55.343Z,68.44
2023-03-16T06:51:55.293Z,70.09
2023-03-16T06:52:55.289Z,70.22
2023-03-16T06:53:55.299Z,70.89
2023-03-16T06:54:55.261Z,67.58
2023-03-16T06:55:55.278Z,71.48
2023-03-16T06:56:55.269Z,71.69
2023-03-16T06:57:55.291Z,67.71
2023-03-16T06:58:55.246Z,67.47
2023-03-16T06:59:55.322Z,68.51
2023-03-16T07:00:55.390Z,69.44
2023-03-16T07:01:55.307Z,68.25
2023-03-16T07:02:55.212Z,66.98
2023-03-16T07:03:55.229Z,70.99
2023-03-16T07:04:55.198Z,71.44
2023-03-16T07:05:55.199Z,66.31
2023-03-16T07:06:55.237Z,71.06
2023-03-16T07:07:55.182Z,72.82
2023-03-16T07:08:55.186Z,69.20
2023-03-16T07:09:55.157Z,69.62
2023-03-16T07:10:55.158Z,67.34
2023-03-16T07:11:55.178Z,66.68
2023-03-16T07:12:55.155Z,69.36
2023-03-16T07:13:55.126Z,64.77
2023-03-16T07:14:55.129Z,64.31
2023-03-16T07:15:55.154Z,68.28
2023-03-16T07:16:55.220Z,59.53
2023-03-16T07:17:55.113Z,70.49
2023-03-16T07:18:55.096Z,63.49
2023-03-16T07:19:55.095Z,65.92
2023-03-16T07:20:55.088Z,67.67
2023-03-16T07:21:55.079Z,67.29
2023-03-16T07:22:55.068Z,68.53
2023-03-16T07:23:55.098Z,67.34
2023-03-16T07:24:55.060Z,66.30
2023-03-16T07:25:55.057Z,67.99
2023-03-16T07:26:55.032Z,66.88
2023-03-16T07:27:55.065Z,66.28
2023-03-16T07:28:57.878Z,66.99
2023-03-16T07:29:55.142Z,73.70
2023-03-16T07:31:03.326Z,67.45
2023-03-16T07:31:57.128Z,66.72
2023-03-16T07:32:55.080Z,67.37
2023-03-16T07:33:55.036Z,66.82
2023-03-16T07:34:55.754Z,66.57
2023-03-16T07:35:54.982Z,68.55
2023-03-16T07:36:54.967Z,66.59
2023-03-16T07:37:54.991Z,64.83
2023-03-16T07:38:54.974Z,67.15
2023-03-16T07:39:54.992Z,69.49
2023-03-16T07:40:54.951Z,72.59
2023-03-16T07:41:54.942Z,68.53
2023-03-16T07:42:54.920Z,63.51
2023-03-16T07:43:54.921Z,71.40
2023-03-16T07:44:54.935Z,67.94
2023-03-16T07:45:54.977Z,71.45
2023-03-16T07:46:54.887Z,70.04
2023-03-16T07:47:54.885Z,63.82
2023-03-16T07:48:54.858Z,67.37
2023-03-16T07:49:54.933Z,69.12
2023-03-16T07:50:54.860Z,64.65
2023-03-16T07:51:54.850Z,60.08
2023-03-16T07:52:54.872Z,64.85
2023-03-16T07:53:54.820Z,63.41
2023-03-16T07:54:54.876Z,62.32
2023-03-16T07:55:54.826Z,62.48
2023-03-16T07:56:54.802Z,66.03
2023-03-16T07:57:54.815Z,66.48
2023-03-16T07:58:54.784Z,59.78
2023-03-16T07:59:54.797Z,62.56
2023-03-16T08:00:54.823Z,58.78
2023-03-16T08:01:54.902Z,62.97
2023-03-16T08:02:54.840Z,67.92
2023-03-16T08:03:54.791Z,64.83
2023-03-16T08:04:54.746Z,69.97
2023-03-16T08:05:54.769Z,69.33
2023-03-16T08:06:54.730Z,59.39
2023-03-16T08:07:54.743Z,67.26
2023-03-16T08:08:54.712Z,69.80
2023-03-16T08:09:54.698Z,69.32
2023-03-16T08:10:56.630Z,67.51
2023-03-16T08:11:55.681Z,58.72
2023-03-16T08:12:54.822Z,65.54
2023-03-16T08:13:54.680Z,66.17
2023-03-16T08:14:54.705Z,66.99
2023-03-16T08:15:54.677Z,66.69
2023-03-16T08:16:54.658Z,63.66
2023-03-16T08:17:54.720Z,67.21
2023-03-16T08:18:54.651Z,69.57
2023-03-16T08:19:54.628Z,60.16
2023-03-16T08:20:54.633Z,68.98
2023-03-16T08:22:01.386Z,68.39
2023-03-16T08:22:56.760Z,62.79
2023-03-16T08:23:54.587Z,62.54
2023-03-16T08:24:54.618Z,68.16
2023-03-16T08:25:54.635Z,70.70
2023-03-16T08:26:54.578Z,56.96
2023-03-16T08:27:54.574Z,65.97
2023-03-16T08:28:54.605Z,61.02
2023-03-16T08:29:54.556Z,69.58
2023-03-16T08:30:54.570Z,64.65
2023-03-16T08:31:54.576Z,64.29
2023-03-16T08:32:54.551Z,67.07
2023-03-16T08:33:54.555Z,67.31
2023-03-16T08:34:54.492Z,65.39
2023-03-16T08:35:54.553Z,62.89
2023-03-16T08:36:54.530Z,69.49
2023-03-16T08:37:54.517Z,64.09
2023-03-16T08:39:06.048Z,65.18
2023-03-16T08:39:56.507Z,64.11
2023-03-16T08:40:54.467Z,65.53
2023-03-16T08:41:54.489Z,69.75
2023-03-16T08:42:54.469Z,71.23
2023-03-16T08:43:54.438Z,69.30
2023-03-16T08:44:54.440Z,68.54
2023-03-16T08:45:54.430Z,63.34
2023-03-16T08:46:54.436Z,67.82
2023-03-16T08:47:54.402Z,66.56
2023-03-16T08:48:54.401Z,66.92
2023-03-16T08:49:54.397Z,64.35
2023-03-16T08:50:54.442Z,68.15
2023-03-16T08:51:54.390Z,65.23
2023-03-16T08:52:54.405Z,70.17
2023-03-16T08:53:55.115Z,61.96
2023-03-16T08:55:03.096Z,63.17
2023-03-16T08:55:56.358Z,63.54
2023-03-16T08:56:54.365Z,67.72
2023-03-16T08:57:55.049Z,66.69
2023-03-16T08:58:54.322Z,64.21
2023-03-16T08:59:54.386Z,69.85
2023-03-16T09:00:55.154Z,64.73
2023-03-16T09:01:54.379Z,66.55
2023-03-16T09:02:54.317Z,67.29
2023-03-16T09:03:54.327Z,65.96
2023-03-16T09:04:54.281Z,64.82
2023-03-16T09:05:56.049Z,57.32
2023-03-16T09:07:09.886Z,60.62
2023-03-16T09:07:56.316Z,69.55
2023-03-16T09:08:54.260Z,66.44
2023-03-16T09:09:54.303Z,63.30
2023-03-16T09:10:54.267Z,64.47
2023-03-16T09:11:54.248Z,67.98
2023-03-16T09:12:54.362Z,58.43
2023-03-16T09:13:54.299Z,59.18
2023-03-16T09:14:54.209Z,71.44
2023-03-16T09:15:54.292Z,66.29
2023-03-16T09:16:54.300Z,70.61
2023-03-16T09:17:55.066Z,70.35
2023-03-16T09:18:54.247Z,66.68
2023-03-16T09:19:57.748Z,71.96
2023-03-16T09:20:56.966Z,63.41
2023-03-16T09:21:54.174Z,64.06
2023-03-16T09:22:54.155Z,57.32
2023-03-16T09:23:55.198Z,70.36
2023-03-16T09:24:54.161Z,68.48
2023-03-16T09:25:54.281Z,62.40
2023-03-16T09:26:54.207Z,66.23
2023-03-16T09:27:54.217Z,64.76
2023-03-16T09:28:54.140Z,66.71
2023-03-16T09:29:54.134Z,65.65
2023-03-16T09:30:54.131Z,64.29
2023-03-16T09:31:54.160Z,64.51
2023-03-16T09:32:54.075Z,63.27
2023-03-16T09:33:54.086Z,52.29
2023-03-16T09:34:54.094Z,63.42
2023-03-16T09:35:54.086Z,62.65
2023-03-16T09:36:55.076Z,69.05
2023-03-16T09:38:07.347Z,63.56
2023-03-16T09:38:56.145Z,65.29
2023-03-16T09:39:57.952Z,64.08
2023-03-16T09:40:56.041Z,68.00
2023-03-16T09:41:54.055Z,70.47
2023-03-16T09:42:54.022Z,57.77
2023-03-16T09:43:54.030Z,62.76
2023-03-16T09:44:54.020Z,69.66
2023-03-16T09:45:54.089Z,61.77
2023-03-16T09:46:53.995Z,62.05
2023-03-16T09:47:53.953Z,65.90
2023-03-16T09:48:55.028Z,68.95
2023-03-16T09:49:54.016Z,69.15
2023-03-16T09:50:54.326Z,65.85
2023-03-16T09:51:53.986Z,67.36
2023-03-16T09:52:53.949Z,61.49
2023-03-16T09:53:53.946Z,59.21
2023-03-16T09:54:53.966Z,69.02
2023-03-16T09:55:53.978Z,66.81
2023-03-16T09:56:53.918Z,64.62
2023-03-16T09:57:53.929Z,62.43
2023-03-16T09:58:54.674Z,67.22
2023-03-16T09:59:53.904Z,66.09
2023-03-16T10:00:53.963Z,65.90
2023-03-16T10:01:53.897Z,63.82
2023-03-16T10:02:53.867Z,68.32
2023-03-16T10:03:53.945Z,66.73
2023-03-16T10:04:53.851Z,63.97
2023-03-16T10:05:53.866Z,62.63
2023-03-16T10:06:53.879Z,61.98
2023-03-16T10:07:53.832Z,59.77
2023-03-16T10:08:53.881Z,63.25
2023-03-16T10:09:54.574Z,59.43
2023-03-16T10:10:53.904Z,68.14
2023-03-16T10:11:53.881Z,63.42
2023-03-16T10:12:53.827Z,62.78
2023-03-16T10:13:53.776Z,69.72
2023-03-16T10:14:53.821Z,61.79
2023-03-16T10:15:53.778Z,71.17
2023-03-16T10:16:53.931Z,66.32
2023-03-16T10:17:53.783Z,67.31
2023-03-16T10:18:53.751Z,62.60
2023-03-16T10:19:53.752Z,65.00
2023-03-16T10:20:53.762Z,68.80
2023-03-16T10:21:53.785Z,63.96
2023-03-16T10:22:53.736Z,60.68
2023-03-16T10:23:53.715Z,67.54
2023-03-16T10:24:53.711Z,65.28
2023-03-16T10:25:53.688Z,65.28
2023-03-16T10:26:53.736Z,65.22
2023-03-16T10:27:53.756Z,66.35
2023-03-16T10:28:53.675Z,60.36
2023-03-16T10:29:53.663Z,59.64
2023-03-16T10:30:53.673Z,66.12
2023-03-16T10:31:53.722Z,66.40
2023-03-16T10:32:53.745Z,66.09
2023-03-16T10:33:53.692Z,64.37
2023-03-16T10:34:53.668Z,65.04
2023-03-16T10:35:53.650Z,68.76
2023-03-16T10:36:53.614Z,62.50
2023-03-16T10:37:53.642Z,66.16
2023-03-16T10:38:54.664Z,63.36
2023-03-16T10:39:53.610Z,65.27
2023-03-16T10:40:53.606Z,67.62
2023-03-16T10:41:53.667Z,63.38
2023-03-16T10:42:53.612Z,65.39
2023-03-16T10:43:53.611Z,67.86
2023-03-16T10:44:53.585Z,68.63
2023-03-16T10:45:53.629Z,62.57
2023-03-16T10:46:53.682Z,62.72
2023-03-16T10:47:53.553Z,59.36
2023-03-16T10:48:53.584Z,68.47
2023-03-16T10:49:53.522Z,59.15
2023-03-16T10:50:53.535Z,69.82
2023-03-16T10:51:53.501Z,59.26
2023-03-16T10:52:53.553Z,61.76
2023-03-16T10:53:53.538Z,63.39
2023-03-16T10:54:53.526Z,69.84
2023-03-16T10:55:53.499Z,62.30
2023-03-16T10:56:53.485Z,67.08
2023-03-16T10:57:53.494Z,61.89
2023-03-16T10:58:53.470Z,65.18
2023-03-16T10:59:54.198Z,67.42
2023-03-16T11:00:53.614Z,69.68
2023-03-16T11:01:53.446Z,64.61
2023-03-16T11:02:53.451Z,64.11
2023-03-16T11:03:53.427Z,60.88
2023-03-16T11:04:53.478Z,62.12
2023-03-16T11:05:53.500Z,61.08
2023-03-16T11:06:53.408Z,62.83
2023-03-16T11:07:53.401Z,63.55
2023-03-16T11:08:53.913Z,64.35
2023-03-16T11:09:53.396Z,65.10
2023-03-16T11:10:56.118Z,59.68
2023-03-16T11:11:54.354Z,68.27
2023-03-16T11:12:53.345Z,65.82
2023-03-16T11:13:53.349Z,64.50
2023-03-16T11:14:53.350Z,60.46
2023-03-16T11:15:53.401Z,58.91
2023-03-16T11:16:53.421Z,66.48
2023-03-16T11:17:53.334Z,67.53
2023-03-16T11:18:53.293Z,61.60
2023-03-16T11:19:53.309Z,62.55
2023-03-16T11:20:53.301Z,68.01
2023-03-16T11:21:53.297Z,62.99
2023-03-16T11:22:53.294Z,68.07
2023-03-16T11:23:53.282Z,58.37
2023-03-16T11:24:53.321Z,65.30
2023-03-16T11:25:53.272Z,68.11
2023-03-16T11:26:53.281Z,61.37
2023-03-16T11:27:53.317Z,67.44
2023-03-16T11:28:53.220Z,59.75
2023-03-16T11:29:53.244Z,65.82
2023-03-16T11:30:53.297Z,61.31
2023-03-16T11:31:53.240Z,65.75
2023-03-16T11:32:53.227Z,57.93
2023-03-16T11:33:53.225Z,71.06
2023-03-16T11:34:53.208Z,63.93
2023-03-16T11:35:59.313Z,61.03
2023-03-16T11:36:55.200Z,69.45
2023-03-16T11:37:53.197Z,67.03
2023-03-16T11:38:54.531Z,66.97
2023-03-16T11:39:53.235Z,58.93
2023-03-16T11:40:53.124Z,62.45
2023-03-16T11:41:53.127Z,59.71
2023-03-16T11:42:53.139Z,60.90
2023-03-16T11:43:53.166Z,65.50
2023-03-16T11:44:53.102Z,69.62
2023-03-16T11:45:53.109Z,66.26
2023-03-16T11:46:53.140Z,61.72
2023-03-16T11:47:53.115Z,67.46
2023-03-16T11:48:53.111Z,69.21
2023-03-16T11:49:53.067Z,64.04
2023-03-16T11:50:53.051Z,60.65
2023-03-16T11:51:53.082Z,61.11
2023-03-16T11:52:53.053Z,64.17
2023-03-16T11:53:53.097Z,63.34
2023-03-16T11:54:53.053Z,69.16
2023-03-16T11:55:53.019Z,68.15
2023-03-16T11:56:53.012Z,65.22
2023-03-16T11:57:53.009Z,68.68
2023-03-16T11:58:53.002Z,62.92
2023-03-16T12:00:01.208Z,69.94
2023-03-16T12:00:55.007Z,61.22
2023-03-16T12:02:00.104Z,67.52
2023-03-16T12:02:55.084Z,68.15
2023-03-16T12:03:53.080Z,64.66
2023-03-16T12:04:52.993Z,66.94
2023-03-16T12:05:52.984Z,67.54
2023-03-16T12:06:52.969Z,69.74
2023-03-16T12:07:52.966Z,65.72
2023-03-16T12:09:25.617Z,64.91
2023-03-16T12:09:52.978Z,55.10
2023-03-16T12:10:53.028Z,67.83
2023-03-16T12:11:52.925Z,66.52
2023-03-16T12:12:52.890Z,66.53
2023-03-16T12:13:52.943Z,66.13
2023-03-16T12:14:52.885Z,66.59
2023-03-16T12:15:52.958Z,62.76
2023-03-16T12:16:52.930Z,60.80
2023-03-16T12:17:52.871Z,64.42
2023-03-16T12:18:52.842Z,67.49
2023-03-16T12:19:52.857Z,67.26
2023-03-16T12:20:52.867Z,62.00
2023-03-16T12:21:52.844Z,65.38
2023-03-16T12:22:52.892Z,69.95
2023-03-16T12:23:52.842Z,65.24
2023-03-16T12:24:52.792Z,62.04
2023-03-16T12:25:52.814Z,67.71
2023-03-16T12:26:53.770Z,62.45
2023-03-16T12:27:52.868Z,63.76
2023-03-16T12:28:52.811Z,59.88
2023-03-16T12:29:52.762Z,68.59
2023-03-16T12:30:52.763Z,66.02
2023-03-16T12:31:52.863Z,64.23
2023-03-16T12:32:52.841Z,65.84
2023-03-16T12:33:52.707Z,71.61
2023-03-16T12:34:52.725Z,63.76
2023-03-16T12:35:52.733Z,63.81
2023-03-16T12:36:52.724Z,68.79
2023-03-16T12:37:52.901Z,65.46
2023-03-16T12:38:52.708Z,68.54
2023-03-16T12:39:52.693Z,67.84
2023-03-16T12:40:52.728Z,69.60
2023-03-16T12:41:52.649Z,65.49
2023-03-16T12:42:52.643Z,68.01
2023-03-16T12:43:52.814Z,68.97
2023-03-16T12:44:52.637Z,61.52
2023-03-16T12:45:52.649Z,63.72
2023-03-16T12:46:52.652Z,65.00
2023-03-16T12:47:52.672Z,65.15
2023-03-16T12:48:52.674Z,55.45
2023-03-16T12:49:53.198Z,64.90
2023-03-16T12:50:52.674Z,68.08
2023-03-16T12:51:52.605Z,67.18
2023-03-16T12:52:52.632Z,69.02
2023-03-16T12:53:52.597Z,58.40
2023-03-16T12:54:52.613Z,65.60
2023-03-16T12:55:52.605Z,68.14
2023-03-16T12:56:52.570Z,63.63
2023-03-16T12:57:52.566Z,60.87
2023-03-16T12:58:52.582Z,65.70
2023-03-16T12:59:52.579Z,64.23
2023-03-16T13:00:52.546Z,68.48
2023-03-16T13:01:53.219Z,66.77
2023-03-16T13:02:53.056Z,69.48
2023-03-16T13:03:52.525Z,68.60
2023-03-16T13:04:52.667Z,62.25
2023-03-16T13:05:52.520Z,66.37
2023-03-16T13:06:52.465Z,64.55
2023-03-16T13:07:52.503Z,69.89
2023-03-16T13:08:53.273Z,69.56